createdAt,value
2023-02-07T00:02:15.968Z,100022.97
2023-02-07T00:07:36.813Z,100017.50
2023-02-07T00:12:57.805Z,100031.28
2023-02-07T00:18:18.646Z,100030.06
2023-02-07T00:23:39.408Z,100023.84
2023-02-07T00:29:00.162Z,100035.31
2023-02-07T00:34:20.934Z,100045.00
2023-02-07T00:39:41.682Z,100036.06
2023-02-07T00:45:02.365Z,100033.34
2023-02-07T00:50:23.092Z,100038.94
2023-02-07T00:55:44.969Z,100035.88
2023-02-07T01:01:05.797Z,100028.47
2023-02-07T01:06:28.003Z,100030.84
2023-02-07T01:11:50.339Z,100047.78
2023-02-07T01:17:12.661Z,100044.06
2023-02-07T01:22:33.354Z,100049.19
2023-02-07T01:27:54.177Z,100041.22
2023-02-07T01:33:14.949Z,100051.72
2023-02-07T01:38:35.881Z,100046.47
2023-02-07T01:44:02.314Z,100050.66
2023-02-07T01:49:31.188Z,100042.22
2023-02-07T01:54:58.085Z,100042.00
2023-02-07T02:00:19.244Z,100040.91
2023-02-07T02:05:40.271Z,100040.91
2023-02-07T02:11:17.199Z,100032.53
2023-02-07T02:17:17.985Z,100029.13
2023-02-07T02:22:50.670Z,100023.69
2023-02-07T02:28:23.464Z,100030.34
2023-02-07T02:34:15.157Z,100026.94
2023-02-07T02:40:04.639Z,100025.72
2023-02-07T02:45:31.954Z,100022.69
2023-02-07T02:50:53.607Z,100036.28
2023-02-07T02:56:28.537Z,100039.00
2023-02-07T03:02:05.087Z,100026.78
2023-02-07T03:07:38.466Z,100016.84
2023-02-07T03:13:26.632Z,100015.25
2023-02-07T03:18:59.601Z,100005.34
2023-02-07T03:24:23.269Z,100008.25
2023-02-07T03:29:46.914Z,100024.13
2023-02-07T03:35:14.407Z,100035.00
2023-02-07T03:40:46.178Z,100042.13
2023-02-07T03:46:09.241Z,100041.78
2023-02-07T03:51:30.283Z,100047.34
2023-02-07T03:56:51.173Z,100026.09
2023-02-07T04:02:12.134Z,100023.38
2023-02-07T04:07:32.804Z,100020.31
2023-02-07T04:12:53.988Z,100021.50
2023-02-07T04:18:14.834Z,100018.91
2023-02-07T04:23:35.567Z,100003.59
2023-02-07T04:28:56.636Z,100010.66
2023-02-07T04:34:17.548Z,100014.06
2023-02-07T04:39:38.146Z,100010.59
2023-02-07T04:44:58.923Z,100019.84
2023-02-07T04:50:19.734Z,100025.38
2023-02-07T04:55:40.688Z,100031.59
2023-02-07T05:01:02.061Z,100052.59
2023-02-07T05:06:22.799Z,100065.19
2023-02-07T05:11:43.585Z,100066.47
2023-02-07T05:17:05.559Z,100072.34
2023-02-07T05:22:26.503Z,100078.97
2023-02-07T05:27:47.185Z,100080.19
2023-02-07T05:33:08.090Z,100072.00
2023-02-07T05:38:28.885Z,100087.16
2023-02-07T05:43:50.039Z,100092.25
2023-02-07T05:49:10.923Z,100082.91
2023-02-07T05:54:31.899Z,100085.13
2023-02-07T05:59:52.717Z,100084.09
2023-02-07T06:05:15.420Z,100085.88
2023-02-07T06:10:36.717Z,100100.75
2023-02-07T06:15:57.574Z,100074.47
2023-02-07T06:21:18.315Z,100080.28
2023-02-07T06:26:39.382Z,100071.69
2023-02-07T06:32:00.185Z,100078.56
2023-02-07T06:37:20.874Z,100075.91
2023-02-07T06:42:41.524Z,100073.94
2023-02-07T06:48:02.363Z,100068.88
2023-02-07T06:53:23.068Z,100063.78
2023-02-07T06:58:43.856Z,100058.59
2023-02-07T07:04:04.480Z,100063.16
2023-02-07T07:09:25.668Z,100063.00
2023-02-07T07:14:46.639Z,100060.91
2023-02-07T07:20:08.128Z,100061.41
2023-02-07T07:25:29.053Z,100071.56
2023-02-07T07:30:49.852Z,100076.50
2023-02-07T07:36:10.677Z,100087.88
2023-02-07T07:41:31.494Z,100080.56
2023-02-07T07:46:53.069Z,100095.81
2023-02-07T07:52:14.095Z,100104.88
2023-02-07T07:57:35.036Z,100106.50
2023-02-07T08:02:55.579Z,100112.94
2023-02-07T08:08:16.768Z,100112.09
2023-02-07T08:13:38.018Z,100114.38
2023-02-07T08:18:59.238Z,100127.66
2023-02-07T08:24:20.078Z,100104.59
2023-02-07T08:29:40.823Z,100101.16
2023-02-07T08:35:01.531Z,100097.91
2023-02-07T08:40:22.873Z,100095.41
2023-02-07T08:45:47.681Z,100095.75
2023-02-07T08:51:09.184Z,100088.41
2023-02-07T08:56:30.083Z,100107.69
2023-02-07T09:01:51.363Z,100108.09
2023-02-07T09:07:12.623Z,100101.97
2023-02-07T09:12:34.254Z,100110.97
2023-02-07T09:17:55.069Z,100109.59
2023-02-07T09:23:19.609Z,100110.91
2023-02-07T09:28:41.314Z,100122.75
2023-02-07T09:34:03.119Z,100123.41
2023-02-07T09:39:24.412Z,100119.56
2023-02-07T09:44:57.569Z,100126.56
2023-02-07T09:50:21.650Z,100121.44
2023-02-07T09:55:47.153Z,100129.19
2023-02-07T10:01:19.376Z,100119.72
2023-02-07T10:06:41.247Z,100115.09
2023-02-07T10:12:20.854Z,100111.97
2023-02-07T10:18:30.268Z,100105.41
2023-02-07T10:24:09.443Z,100099.44
2023-02-07T10:29:37.192Z,100092.81
2023-02-07T10:35:02.175Z,100092.94
2023-02-07T10:40:25.620Z,100094.00
2023-02-07T10:45:51.899Z,100070.50
2023-02-07T10:51:36.115Z,100067.66
2023-02-07T10:57:02.575Z,100079.25
2023-02-07T11:02:32.444Z,100067.22
2023-02-07T11:08:22.974Z,100064.03
2023-02-07T11:13:51.002Z,100069.44
2023-02-07T11:19:17.643Z,100061.53
2023-02-07T11:24:38.783Z,100055.81
2023-02-07T11:30:00.920Z,100052.81
2023-02-07T11:35:21.830Z,100060.09
2023-02-07T11:40:42.334Z,100041.00
2023-02-07T11:46:10.886Z,100044.09
2023-02-07T11:51:32.720Z,100035.59
2023-02-07T11:57:00.792Z,100035.25
2023-02-07T12:02:25.270Z,100028.88
2023-02-07T12:07:49.317Z,100009.47
2023-02-07T12:13:37.932Z,100005.94
2023-02-07T12:19:05.817Z,100010.63
2023-02-07T12:24:29.125Z,100016.03
2023-02-07T12:30:00.374Z,100020.41
2023-02-07T12:35:51.983Z,100016.66
2023-02-07T12:41:24.625Z,100007.69
2023-02-07T12:46:58.974Z,100002.31
2023-02-07T12:52:39.872Z,99993.56
2023-02-07T12:58:25.807Z,100000.03
2023-02-07T13:04:02.163Z,99990.72
2023-02-07T13:10:01.258Z,99989.47
2023-02-07T13:15:24.287Z,99981.06
2023-02-07T13:20:48.461Z,99981.34
2023-02-07T13:26:14.822Z,99993.22
2023-02-07T13:32:01.808Z,99991.69
2023-02-07T13:37:24.832Z,100005.88
2023-02-07T13:43:11.217Z,99996.59
2023-02-07T13:48:44.533Z,99992.56
2023-02-07T13:54:31.182Z,99992.84
2023-02-07T14:00:28.070Z,99990.84
2023-02-07T14:05:50.044Z,99977.50
2023-02-07T14:11:38.021Z,99962.94
2023-02-07T14:16:59.963Z,99965.25
2023-02-07T14:22:22.184Z,99968.78
2023-02-07T14:28:03.845Z,99958.97
2023-02-07T14:33:36.659Z,99954.69
2023-02-07T14:39:27.279Z,99952.19
2023-02-07T14:44:48.298Z,99944.91
2023-02-07T14:50:09.601Z,99943.84
2023-02-07T14:55:35.456Z,99947.03
2023-02-07T15:00:58.610Z,99937.19
2023-02-07T15:06:31.895Z,99934.94
2023-02-07T15:12:05.819Z,99936.59
2023-02-07T15:17:43.733Z,99929.91
2023-02-07T15:23:07.465Z,99945.03
2023-02-07T15:28:29.877Z,99937.84
2023-02-07T15:33:58.677Z,99946.31
2023-02-07T15:39:23.892Z,99958.25
2023-02-07T15:44:52.482Z,99947.13
2023-02-07T15:50:25.168Z,99945.84
2023-02-07T15:55:47.615Z,99950.16
2023-02-07T16:01:22.926Z,99955.69
2023-02-07T16:07:03.207Z,99960.84
2023-02-07T16:12:31.161Z,99962.13
2023-02-07T16:17:52.238Z,99967.47
2023-02-07T16:23:12.902Z,99983.06
2023-02-07T16:28:33.750Z,99990.88
2023-02-07T16:33:54.572Z,99997.25
2023-02-07T16:39:15.680Z,99999.03
2023-02-07T16:44:36.810Z,100007.38
2023-02-07T16:49:59.128Z,100004.75
2023-02-07T16:55:20.555Z,100010.97
2023-02-07T17:00:41.614Z,100015.16
2023-02-07T17:06:04.232Z,100035.16
2023-02-07T17:11:26.335Z,100029.25
2023-02-07T17:16:47.341Z,100034.06
2023-02-07T17:22:08.337Z,100035.66
2023-02-07T17:27:28.944Z,100040.00
2023-02-07T17:32:49.820Z,100048.28
2023-02-07T17:38:10.417Z,100049.88
2023-02-07T17:43:34.390Z,100058.16
2023-02-07T17:48:55.767Z,100042.63
2023-02-07T17:54:16.640Z,100046.31
2023-02-07T17:59:37.611Z,100043.63
2023-02-07T18:04:59.020Z,100043.19
2023-02-07T18:10:30.809Z,100036.38
2023-02-07T18:15:51.736Z,100040.22
2023-02-07T18:21:13.672Z,100047.72
2023-02-07T18:26:34.876Z,100047.44
2023-02-07T18:31:55.656Z,100048.06
2023-02-07T18:37:16.588Z,100058.59
2023-02-07T18:42:39.037Z,100051.28
2023-02-07T18:47:59.957Z,100043.84
2023-02-07T18:53:21.400Z,100049.97
2023-02-07T18:58:42.394Z,100043.28
2023-02-07T19:04:06.587Z,100032.78
2023-02-07T19:09:27.681Z,100038.13
2023-02-07T19:14:48.946Z,100037.97
2023-02-07T19:20:10.574Z,100041.97
2023-02-07T19:25:32.094Z,100040.00
2023-02-07T19:30:53.019Z,100033.63
2023-02-07T19:36:13.845Z,100030.44
2023-02-07T19:41:35.428Z,100041.56
2023-02-07T19:46:56.917Z,100034.69
2023-02-07T19:52:23.664Z,100033.47
2023-02-07T19:57:45.354Z,100039.44
2023-02-07T20:03:06.180Z,100044.44
2023-02-07T20:08:27.214Z,100046.13
2023-02-07T20:13:50.488Z,100051.16
2023-02-07T20:19:11.430Z,100046.59
2023-02-07T20:24:32.474Z,100036.56
2023-02-07T20:29:53.647Z,100040.06
2023-02-07T20:35:15.012Z,100037.31
2023-02-07T20:40:36.197Z,100040.34
2023-02-07T20:46:08.216Z,100051.75
2023-02-07T20:51:29.372Z,100054.94
2023-02-07T20:56:54.020Z,100065.88
2023-02-07T21:02:15.077Z,100063.72
2023-02-07T21:07:35.742Z,100066.78
2023-02-07T21:12:56.995Z,100064.50
2023-02-07T21:18:18.013Z,100064.66
2023-02-07T21:23:38.740Z,100064.97
2023-02-07T21:29:00.455Z,100069.84
2023-02-07T21:34:22.249Z,100073.16
2023-02-07T21:39:43.549Z,100078.50
2023-02-07T21:45:05.120Z,100074.50
2023-02-07T21:50:26.267Z,100075.13
2023-02-07T21:55:47.152Z,100078.63
2023-02-07T22:01:18.752Z,100074.66
2023-02-07T22:06:42.175Z,100076.94
2023-02-07T22:12:03.168Z,100081.78
2023-02-07T22:17:23.825Z,100087.72
2023-02-07T22:22:44.629Z,100084.03
2023-02-07T22:28:05.943Z,100088.91
2023-02-07T22:33:26.643Z,100077.00
2023-02-07T22:38:47.886Z,100076.72
2023-02-07T22:44:10.829Z,100074.75
2023-02-07T22:49:31.598Z,100075.66
2023-02-07T22:54:52.312Z,100071.09
2023-02-07T23:00:13.596Z,100076.41
2023-02-07T23:05:37.586Z,100076.06
2023-02-07T23:10:58.652Z,100067.66
2023-02-07T23:16:21.188Z,100063.56
2023-02-07T23:21:42.211Z,100064.63
2023-02-07T23:27:03.392Z,100054.72
2023-02-07T23:32:24.087Z,100060.44
2023-02-07T23:37:44.892Z,100051.06
2023-02-07T23:43:05.802Z,100047.22
2023-02-07T23:48:26.813Z,100048.28
2023-02-07T23:53:47.838Z,100057.50
2023-02-07T23:59:09.797Z,100067.91
